Time;durP1;ratioP1;P1;durP2;ratioP2;P2;SDS_P1;SDS_P2;PMS_P1;PMS_P2;Temp;Humidity;BMP_temperature;BMP_pressure;BME280_temperature;BME280_humidity;BME280_pressure;Samples;Min_cycle;Max_cycle;Signal;HPM_P1;HPM_P2
2022/11/21 00:00:24;;;;;;;;;;;0.30;99.90;;;;;;5010829;28;19921;-77
2022/11/21 00:02:50;;;;;;;;;;;0.30;99.90;;;;;;5011656;28;19984;-77
2022/11/21 00:05:15;;;;;;;;;;;0.30;99.90;;;;;;5026735;28;20015;-77
2022/11/21 00:07:41;;;;;;;;;;;0.30;99.90;;;;;;4999873;28;19921;-77
2022/11/21 00:10:07;;;;;;;;;;;0.30;99.90;;;;;;5010467;28;19921;-77
2022/11/21 00:12:33;;;;;;;;;;;0.30;99.90;;;;;;5011758;28;20012;-77
2022/11/21 00:14:58;;;;;;;;;;;0.30;99.90;;;;;;4979547;28;19921;-76
2022/11/21 00:17:24;;;;;;;;;;;0.30;99.90;;;;;;5011403;28;20359;-77
2022/11/21 00:19:49;;;;;;;;;;;1.10;99.90;;;;;;5010166;28;20272;-76
2022/11/21 00:22:15;;;;;;;;;;;0.30;99.90;;;;;;4996466;28;19929;-76
2022/11/21 00:24:40;;;;;;;;;;;0.70;99.90;;;;;;4998399;28;19933;-77
2022/11/21 00:27:06;;;;;;;;;;;0.60;99.90;;;;;;4995845;28;19947;-77
2022/11/21 00:29:32;;;;;;;;;;;0.80;99.90;;;;;;5011417;28;20400;-77
2022/11/21 00:31:57;;;;;;;;;;;1.40;99.90;;;;;;4991964;28;20418;-77
2022/11/21 00:34:23;;;;;;;;;;;0.40;99.90;;;;;;5013883;28;19929;-77
2022/11/21 00:36:48;;;;;;;;;;;0.30;99.90;;;;;;5013057;28;19921;-77
2022/11/21 00:39:14;;;;;;;;;;;0.30;99.90;;;;;;4977156;28;19972;-76
2022/11/21 00:41:39;;;;;;;;;;;0.40;99.90;;;;;;4992354;28;19932;-76
2022/11/21 00:44:05;;;;;;;;;;;0.40;99.90;;;;;;4992310;28;19932;-77
2022/11/21 00:46:30;;;;;;;;;;;0.40;99.90;;;;;;4992353;28;19925;-77
2022/11/21 00:48:56;;;;;;;;;;;0.40;99.90;;;;;;5008347;28;20401;-77
2022/11/21 00:51:21;;;;;;;;;;;0.40;99.90;;;;;;5011232;28;19921;-77
2022/11/21 00:53:47;;;;;;;;;;;0.40;99.90;;;;;;5009471;28;19929;-77
2022/11/21 00:56:13;;;;;;;;;;;0.40;99.90;;;;;;5006864;28;19921;-77
2022/11/21 00:58:38;;;;;;;;;;;0.90;99.90;;;;;;4994913;28;19982;-77
2022/11/21 01:01:13;;;;;;;;;;;0.40;99.90;;;;;;4993493;28;19921;-77
2022/11/21 01:03:39;;;;;;;;;;;0.40;99.90;;;;;;5007926;28;19925;-77
2022/11/21 01:06:06;;;;;;;;;;;0.30;99.90;;;;;;5011335;28;19928;-77
2022/11/21 01:08:33;;;;;;;;;;;0.40;99.90;;;;;;4993084;28;19929;-76
2022/11/21 01:11:12;;;;;;;;;;;0.40;99.90;;;;;;4988297;28;20294;-76
2022/11/21 01:13:38;;;;;;;;;;;0.30;99.90;;;;;;4991855;28;20413;-77
2022/11/21 01:16:08;;;;;;;;;;;0.30;99.90;;;;;;5024699;28;19928;-77
2022/11/21 01:18:35;;;;;;;;;;;0.30;99.90;;;;;;5003178;28;19932;-77
2022/11/21 01:21:01;;;;;;;;;;;0.30;99.90;;;;;;5008710;28;19970;-77
2022/11/21 01:23:27;;;;;;;;;;;0.80;99.90;;;;;;5026936;28;19979;-77
2022/11/21 01:25:52;;;;;;;;;;;1.10;99.90;;;;;;4994570;28;19969;-76
2022/11/21 01:28:18;;;;;;;;;;;0.30;99.90;;;;;;4997018;28;20371;-76
2022/11/21 01:30:43;;;;;;;;;;;0.30;99.90;;;;;;5011615;28;19929;-76
2022/11/21 01:33:09;;;;;;;;;;;1.50;99.90;;;;;;4979006;28;19944;-77
2022/11/21 01:35:34;;;;;;;;;;;0.30;99.90;;;;;;5009607;28;19936;-77
2022/11/21 01:38:00;;;;;;;;;;;0.30;99.90;;;;;;5010600;28;20315;-75
2022/11/21 01:40:25;;;;;;;;;;;0.30;99.90;;;;;;5015653;28;19929;-76
2022/11/21 01:42:52;;;;;;;;;;;0.30;99.90;;;;;;5005492;28;19922;-77
2022/11/21 01:45:36;;;;;;;;;;;0.20;99.90;;;;;;5024212;28;19976;-77
2022/11/21 01:48:02;;;;;;;;;;;0.20;99.90;;;;;;4994453;28;20669;-77
2022/11/21 01:50:28;;;;;;;;;;;0.20;99.90;;;;;;5007995;28;20082;-77
2022/11/21 01:52:53;;;;;;;;;;;0.20;99.90;;;;;;4991383;28;19991;-77
2022/11/21 01:55:19;;;;;;;;;;;0.20;99.90;;;;;;5008010;28;19936;-77
2022/11/21 01:57:47;;;;;;;;;;;1.30;99.90;;;;;;4978425;28;19928;-77
2022/11/21 02:00:12;;;;;;;;;;;0.10;99.90;;;;;;5011224;28;19936;-77
2022/11/21 02:02:40;;;;;;;;;;;0.10;99.90;;;;;;5024735;28;19921;-77
2022/11/21 02:05:08;;;;;;;;;;;0.10;99.90;;;;;;4992921;28;19929;-77
2022/11/21 02:07:34;;;;;;;;;;;0.10;99.90;;;;;;5012029;28;20401;-77
2022/11/21 02:10:01;;;;;;;;;;;0.10;99.90;;;;;;5009748;28;20078;-77
2022/11/21 02:12:34;;;;;;;;;;;0.00;99.90;;;;;;5012334;28;20433;-77
2022/11/21 02:15:00;;;;;;;;;;;0.00;99.90;;;;;;5010067;28;20289;-77
2022/11/21 02:17:28;;;;;;;;;;;-0.10;99.90;;;;;;5005747;28;19929;-77
2022/11/21 02:19:55;;;;;;;;;;;-0.10;99.90;;;;;;5008343;28;19979;-77
2022/11/21 02:22:24;;;;;;;;;;;0.50;99.90;;;;;;5011423;28;20293;-76
2022/11/21 02:25:08;;;;;;;;;;;-0.20;99.90;;;;;;4991085;28;19984;-77
2022/11/21 02:27:34;;;;;;;;;;;-0.30;99.90;;;;;;4988163;28;19961;-76
2022/11/21 02:30:04;;;;;;;;;;;-0.40;99.90;;;;;;4976806;28;19929;-77
2022/11/21 02:32:37;;;;;;;;;;;-0.50;99.90;;;;;;4993668;28;19928;-77
2022/11/21 02:35:04;;;;;;;;;;;-0.50;99.90;;;;;;4991530;28;19921;-77
2022/11/21 02:37:30;;;;;;;;;;;-0.60;99.90;;;;;;5007856;28;19936;-77
2022/11/21 02:39:57;;;;;;;;;;;-0.60;99.90;;;;;;5023962;28;19955;-77
2022/11/21 02:42:33;;;;;;;;;;;-0.70;99.90;;;;;;5010106;28;19960;-77
2022/11/21 02:45:07;;;;;;;;;;;-0.70;99.90;;;;;;5009437;28;20027;-77
2022/11/21 02:47:34;;;;;;;;;;;-0.80;99.90;;;;;;4988616;28;19925;-77
2022/11/21 02:50:06;;;;;;;;;;;-0.80;99.90;;;;;;4977215;28;19929;-77
2022/11/21 02:52:31;;;;;;;;;;;-0.90;99.90;;;;;;5003888;28;19928;-77
2022/11/21 02:54:57;;;;;;;;;;;-0.90;99.90;;;;;;5011631;28;19921;-77
2022/11/21 02:57:22;;;;;;;;;;;-0.90;99.90;;;;;;5026426;28;19921;-77
2022/11/21 02:59:48;;;;;;;;;;;-1.00;99.90;;;;;;5003581;28;20011;-77
2022/11/21 03:02:13;;;;;;;;;;;-1.00;99.90;;;;;;4994333;28;20022;-77
2022/11/21 03:04:39;;;;;;;;;;;-1.10;99.90;;;;;;5010751;28;20318;-77
2022/11/21 03:07:04;;;;;;;;;;;-1.10;99.90;;;;;;5012699;28;19925;-77
2022/11/21 03:09:30;;;;;;;;;;;-1.20;99.90;;;;;;4974702;28;19983;-76
2022/11/21 03:11:55;;;;;;;;;;;-1.30;99.90;;;;;;5005015;28;20014;-76
2022/11/21 03:14:21;;;;;;;;;;;-0.70;99.90;;;;;;5008943;28;19928;-77
2022/11/21 03:16:46;;;;;;;;;;;-1.40;99.90;;;;;;5024794;28;19921;-77
2022/11/21 03:19:12;;;;;;;;;;;-1.40;99.90;;;;;;5006781;28;19921;-77
2022/11/21 03:21:37;;;;;;;;;;;-1.40;99.90;;;;;;5010724;28;20044;-77
2022/11/21 03:24:03;;;;;;;;;;;-1.40;99.90;;;;;;4996339;28;20338;-76
2022/11/21 03:26:29;;;;;;;;;;;-1.50;99.90;;;;;;4996235;28;20008;-76
2022/11/21 03:28:54;;;;;;;;;;;-1.50;99.90;;;;;;5011659;28;19960;-77
2022/11/21 03:31:20;;;;;;;;;;;-1.60;99.90;;;;;;4993452;28;19928;-77
2022/11/21 03:33:46;;;;;;;;;;;-1.60;99.90;;;;;;5009629;28;19926;-76
2022/11/21 03:36:11;;;;;;;;;;;-1.70;99.90;;;;;;4991275;28;19930;-77
2022/11/21 03:38:37;;;;;;;;;;;-1.70;99.90;;;;;;5010770;28;19929;-77
2022/11/21 03:41:04;;;;;;;;;;;-1.70;99.90;;;;;;4998359;28;19927;-77
2022/11/21 03:43:30;;;;;;;;;;;-1.00;99.90;;;;;;5011694;28;21210;-77
2022/11/21 03:45:55;;;;;;;;;;;-0.70;99.90;;;;;;4995679;28;19921;-77
2022/11/21 03:48:21;;;;;;;;;;;-1.70;99.90;;;;;;4992151;28;19951;-77
2022/11/21 03:50:46;;;;;;;;;;;-1.70;99.90;;;;;;5010090;28;20012;-77
2022/11/21 03:53:12;;;;;;;;;;;-1.80;99.90;;;;;;4994351;28;19921;-77
2022/11/21 03:55:37;;;;;;;;;;;-1.80;99.90;;;;;;5010053;28;19932;-77
2022/11/21 03:58:03;;;;;;;;;;;-1.80;99.90;;;;;;4992220;28;20306;-77
2022/11/21 04:00:28;;;;;;;;;;;-1.80;99.90;;;;;;4993764;28;20504;-76
2022/11/21 04:02:54;;;;;;;;;;;-1.80;99.90;;;;;;4992484;28;19925;-76
2022/11/21 04:05:19;;;;;;;;;;;-1.80;99.90;;;;;;4995658;28;19932;-77
2022/11/21 04:07:45;;;;;;;;;;;-1.80;99.90;;;;;;5009001;28;19979;-77
2022/11/21 04:10:11;;;;;;;;;;;-1.80;99.90;;;;;;5026847;28;19925;-77
2022/11/21 04:12:36;;;;;;;;;;;-1.80;99.90;;;;;;5026096;28;20011;-76
2022/11/21 04:15:02;;;;;;;;;;;-1.50;99.90;;;;;;4993936;28;19921;-77
2022/11/21 04:17:28;;;;;;;;;;;-1.80;99.90;;;;;;4967064;28;20404;-77
2022/11/21 04:19:53;;;;;;;;;;;-1.90;99.90;;;;;;5025368;28;19936;-76
2022/11/21 04:22:19;;;;;;;;;;;-1.90;99.90;;;;;;4993435;28;19939;-77
2022/11/21 04:24:44;;;;;;;;;;;-1.90;99.90;;;;;;5008403;28;19925;-77
2022/11/21 04:27:10;;;;;;;;;;;-1.90;99.90;;;;;;4990331;28;19925;-77
2022/11/21 04:29:35;;;;;;;;;;;-1.50;99.90;;;;;;4997207;28;19921;-77
2022/11/21 04:32:01;;;;;;;;;;;-2.00;99.90;;;;;;4978426;28;19975;-76
2022/11/21 04:34:28;;;;;;;;;;;-2.00;99.90;;;;;;4978380;28;20335;-77
2022/11/21 04:36:54;;;;;;;;;;;-2.00;99.90;;;;;;4995340;28;20352;-76
2022/11/21 04:39:19;;;;;;;;;;;-2.00;99.90;;;;;;5011998;28;19978;-76
2022/11/21 04:41:45;;;;;;;;;;;-2.00;99.90;;;;;;4978109;28;20161;-77
2022/11/21 04:44:11;;;;;;;;;;;-2.00;99.90;;;;;;5025885;28;20008;-76
2022/11/21 04:46:36;;;;;;;;;;;-2.00;99.90;;;;;;5010618;28;19929;-76
2022/11/21 04:49:02;;;;;;;;;;;-2.00;99.90;;;;;;5008286;28;20382;-77
2022/11/21 04:51:27;;;;;;;;;;;-2.00;99.90;;;;;;5025119;28;19921;-77
2022/11/21 04:53:53;;;;;;;;;;;-1.50;99.90;;;;;;4993834;28;20514;-77
2022/11/21 04:56:18;;;;;;;;;;;-2.00;99.90;;;;;;5007422;28;19956;-77
2022/11/21 04:58:44;;;;;;;;;;;-2.00;99.90;;;;;;4990053;28;19948;-77
2022/11/21 05:01:09;;;;;;;;;;;-2.00;99.90;;;;;;4991519;28;19921;-77
2022/11/21 05:03:35;;;;;;;;;;;-2.00;99.90;;;;;;4977323;28;19980;-76
2022/11/21 05:06:00;;;;;;;;;;;-2.00;99.90;;;;;;5008949;28;19940;-77
2022/11/21 05:08:26;;;;;;;;;;;-2.00;99.90;;;;;;5027327;28;20024;-77
2022/11/21 05:13:36;;;;;;;;;;;-2.00;99.90;;;;;;5010144;28;19980;-77
2022/11/21 05:16:02;;;;;;;;;;;-2.10;99.90;;;;;;5008914;28;19929;-77
2022/11/21 05:18:27;;;;;;;;;;;-2.10;99.90;;;;;;5008004;28;19921;-77
2022/11/21 05:20:53;;;;;;;;;;;-2.20;99.90;;;;;;5012058;28;20012;-77
2022/11/21 05:23:19;;;;;;;;;;;-2.20;99.90;;;;;;5006996;28;19967;-77
2022/11/21 05:25:44;;;;;;;;;;;-2.20;99.90;;;;;;4990316;28;20017;-76
2022/11/21 05:28:10;;;;;;;;;;;-2.20;99.90;;;;;;4973628;28;19928;-77
2022/11/21 05:30:36;;;;;;;;;;;-2.30;99.90;;;;;;4989475;28;20504;-76
2022/11/21 05:33:02;;;;;;;;;;;-1.30;99.90;;;;;;4972919;28;20395;-77
2022/11/21 05:35:27;;;;;;;;;;;-2.40;99.90;;;;;;4986683;28;19968;-76
2022/11/21 05:37:57;;;;;;;;;;;-2.10;99.90;;;;;;4966219;28;20361;-77
2022/11/21 05:40:23;;;;;;;;;;;-1.70;99.90;;;;;;4970030;28;19921;-77
2022/11/21 05:45:32;;;;;;;;;;;-1.50;99.90;;;;;;4972461;28;19979;-76
2022/11/21 05:47:58;;;;;;;;;;;-1.50;99.90;;;;;;4970475;28;20008;-77
2022/11/21 05:50:24;;;;;;;;;;;-1.50;99.90;;;;;;4972160;28;19936;-77
2022/11/21 05:52:49;;;;;;;;;;;-1.60;99.90;;;;;;4970237;28;20132;-77
2022/11/21 05:55:15;;;;;;;;;;;-1.60;99.90;;;;;;4973294;28;19973;-77
2022/11/21 05:57:40;;;;;;;;;;;-1.60;99.90;;;;;;4970492;28;19929;-77
2022/11/21 06:00:06;;;;;;;;;;;-1.70;99.90;;;;;;4968142;28;19930;-77
2022/11/21 06:05:16;;;;;;;;;;;-1.70;99.90;;;;;;4988081;28;19926;-77
2022/11/21 06:07:42;;;;;;;;;;;-1.80;99.90;;;;;;4991100;28;19921;-77
2022/11/21 06:10:07;;;;;;;;;;;-0.90;99.90;;;;;;4970290;28;19926;-77
2022/11/21 06:12:33;;;;;;;;;;;-1.90;99.90;;;;;;4956457;28;19921;-77
2022/11/21 06:14:58;;;;;;;;;;;-1.70;99.90;;;;;;4954540;28;20245;-77
2022/11/21 06:17:24;;;;;;;;;;;-2.00;99.90;;;;;;4970201;28;19936;-77
2022/11/21 06:19:49;;;;;;;;;;;-2.00;99.90;;;;;;4987730;28;19926;-77
2022/11/21 06:22:15;;;;;;;;;;;-2.10;99.90;;;;;;4987920;28;19976;-77
2022/11/21 06:24:41;;;;;;;;;;;-2.20;99.90;;;;;;4972976;28;19995;-77
2022/11/21 06:27:06;;;;;;;;;;;-2.30;99.90;;;;;;4972325;28;19921;-77
2022/11/21 06:29:32;;;;;;;;;;;-2.30;99.90;;;;;;4975244;28;19930;-77
2022/11/21 06:31:57;;;;;;;;;;;-2.40;99.90;;;;;;4989474;28;19926;-77
2022/11/21 06:34:24;;;;;;;;;;;-2.40;99.90;;;;;;4990228;28;19925;-77
2022/11/21 06:36:50;;;;;;;;;;;-2.50;99.90;;;;;;5011525;28;19929;-77
2022/11/21 06:39:15;;;;;;;;;;;-2.50;99.90;;;;;;5012911;28;20017;-77
2022/11/21 06:41:41;;;;;;;;;;;-0.60;99.90;;;;;;4986049;28;20378;-77
2022/11/21 06:44:06;;;;;;;;;;;-1.60;99.90;;;;;;5012957;28;20717;-76
2022/11/21 06:46:32;;;;;;;;;;;-2.60;99.90;;;;;;4991959;28;20394;-77
2022/11/21 06:48:58;;;;;;;;;;;-2.60;99.90;;;;;;4990889;28;19966;-77
2022/11/21 06:51:23;;;;;;;;;;;-2.70;99.90;;;;;;5006461;28;19928;-78
2022/11/21 06:53:54;;;;;;;;;;;-2.70;99.90;;;;;;4985699;28;19991;-77
2022/11/21 06:56:20;;;;;;;;;;;-2.70;99.90;;;;;;4994236;28;19936;-77
2022/11/21 06:58:46;;;;;;;;;;;-2.70;99.90;;;;;;4993535;28;20089;-80
2022/11/21 07:01:12;;;;;;;;;;;-2.70;99.90;;;;;;4979463;28;20047;-77
2022/11/21 07:03:38;;;;;;;;;;;-2.70;99.90;;;;;;5004772;28;20286;-76
2022/11/21 07:06:04;;;;;;;;;;;-2.70;99.90;;;;;;5009612;28;19921;-76
2022/11/21 07:08:31;;;;;;;;;;;-2.80;99.90;;;;;;5014239;28;20336;-77
2022/11/21 07:11:00;;;;;;;;;;;-2.00;99.90;;;;;;5007884;28;19944;-77
2022/11/21 07:13:27;;;;;;;;;;;-2.80;99.90;;;;;;5012152;28;19937;-77
2022/11/21 07:15:53;;;;;;;;;;;-2.70;99.90;;;;;;4993672;28;19929;-77
2022/11/21 07:18:20;;;;;;;;;;;-2.80;99.90;;;;;;4996228;28;19921;-76
2022/11/21 07:20:45;;;;;;;;;;;-1.70;99.90;;;;;;5021298;28;19965;-77
2022/11/21 07:23:11;;;;;;;;;;;-2.80;99.90;;;;;;5010386;28;19957;-77
2022/11/21 07:25:38;;;;;;;;;;;-0.90;99.90;;;;;;4989749;28;19979;-76
2022/11/21 07:28:04;;;;;;;;;;;-2.90;99.90;;;;;;4992827;28;20431;-77
2022/11/21 07:30:30;;;;;;;;;;;-2.90;99.90;;;;;;5007061;28;19931;-76
2022/11/21 07:32:56;;;;;;;;;;;-2.80;99.90;;;;;;5012101;28;19998;-76
2022/11/21 07:35:22;;;;;;;;;;;-2.90;99.90;;;;;;5010295;28;19932;-76
2022/11/21 07:37:47;;;;;;;;;;;-2.90;99.90;;;;;;5008662;28;20806;-76
2022/11/21 07:40:13;;;;;;;;;;;-2.90;99.90;;;;;;4992811;28;19967;-77
2022/11/21 07:42:38;;;;;;;;;;;-2.90;99.90;;;;;;5008590;28;19940;-76
2022/11/21 07:45:04;;;;;;;;;;;-2.90;99.90;;;;;;4988381;28;19933;-76
2022/11/21 07:47:29;;;;;;;;;;;-2.80;99.90;;;;;;5029588;28;19932;-76
2022/11/21 07:49:55;;;;;;;;;;;-2.40;99.90;;;;;;5024429;28;19921;-76
2022/11/21 07:52:20;;;;;;;;;;;-2.70;99.90;;;;;;4991666;28;20420;-76
2022/11/21 07:54:46;;;;;;;;;;;-2.60;99.90;;;;;;5008579;28;20457;-76
2022/11/21 07:57:12;;;;;;;;;;;-2.60;99.90;;;;;;5014564;28;19928;-76
2022/11/21 07:59:37;;;;;;;;;;;-2.50;99.90;;;;;;5016266;28;19925;-76
2022/11/21 08:02:03;;;;;;;;;;;-2.50;99.90;;;;;;5012183;28;20036;-76
2022/11/21 08:04:28;;;;;;;;;;;-2.40;99.90;;;;;;4997383;28;20448;-76
2022/11/21 08:06:54;;;;;;;;;;;-2.40;99.90;;;;;;5002064;28;19990;-77
2022/11/21 08:09:20;;;;;;;;;;;-2.40;99.90;;;;;;5029697;28;19921;-76
2022/11/21 08:11:45;;;;;;;;;;;-2.30;99.90;;;;;;5011961;28;20476;-79
2022/11/21 08:14:11;;;;;;;;;;;-2.30;99.90;;;;;;5014733;28;19921;-78
2022/11/21 08:16:36;;;;;;;;;;;-2.20;99.90;;;;;;5029154;28;20310;-78
2022/11/21 08:19:02;;;;;;;;;;;-2.20;99.90;;;;;;4973773;28;20014;-78
2022/11/21 08:21:27;;;;;;;;;;;-2.10;99.90;;;;;;5016740;28;19928;-78
2022/11/21 08:23:53;;;;;;;;;;;-1.50;99.90;;;;;;5012132;28;20023;-78
2022/11/21 08:26:19;;;;;;;;;;;-2.00;99.90;;;;;;5014002;28;19921;-79
2022/11/21 08:28:45;;;;;;;;;;;-1.90;99.90;;;;;;4999261;28;20015;-80
2022/11/21 08:31:10;;;;;;;;;;;-1.90;99.90;;;;;;5005909;28;19967;-79
2022/11/21 08:33:36;;;;;;;;;;;-1.80;99.90;;;;;;4995742;28;19972;-80
2022/11/21 08:36:02;;;;;;;;;;;-1.80;99.90;;;;;;4991067;28;19929;-79
2022/11/21 08:38:28;;;;;;;;;;;-1.60;99.90;;;;;;5013972;28;19947;-80
2022/11/21 08:42:01;;;;;;;;;;;-1.50;99.90;;;;;;5004054;28;20419;-79
2022/11/21 08:43:39;;;;;;;;;;;-1.30;99.90;;;;;;5013706;28;19921;-77
2022/11/21 08:46:05;;;;;;;;;;;-0.90;99.90;;;;;;5024105;28;20345;-77
2022/11/21 08:48:30;;;;;;;;;;;-0.40;99.90;;;;;;5013679;28;19935;-77
2022/11/21 08:50:56;;;;;;;;;;;0.60;99.90;;;;;;4990381;28;20374;-77
2022/11/21 08:53:22;;;;;;;;;;;0.90;99.90;;;;;;5014046;28;19983;-77
2022/11/21 08:55:47;;;;;;;;;;;1.90;99.90;;;;;;5015298;28;19921;-77
2022/11/21 08:58:13;;;;;;;;;;;1.50;99.90;;;;;;4986034;28;19921;-78
2022/11/21 09:00:38;;;;;;;;;;;2.30;99.90;;;;;;5013954;28;20259;-77
2022/11/21 09:03:04;;;;;;;;;;;2.20;99.90;;;;;;4999839;28;20337;-77
2022/11/21 09:05:30;;;;;;;;;;;3.00;99.90;;;;;;5015556;28;19929;-77
2022/11/21 09:07:56;;;;;;;;;;;3.00;99.90;;;;;;4980573;28;19929;-76
2022/11/21 09:10:22;;;;;;;;;;;2.40;99.90;;;;;;5027846;28;19927;-75
2022/11/21 09:12:47;;;;;;;;;;;2.70;99.90;;;;;;5012727;28;20015;-75
2022/11/21 09:18:03;;;;;;;;;;;2.80;99.90;;;;;;5012218;28;19971;-75
2022/11/21 09:20:30;;;;;;;;;;;3.00;99.90;;;;;;5012536;28;19928;-75
2022/11/21 09:22:56;;;;;;;;;;;2.90;99.90;;;;;;5013161;28;19921;-75
2022/11/21 09:25:21;;;;;;;;;;;2.70;99.90;;;;;;4996003;28;19929;-75
2022/11/21 09:27:47;;;;;;;;;;;2.30;99.90;;;;;;4992922;28;20016;-76
2022/11/21 09:30:13;;;;;;;;;;;2.50;99.90;;;;;;4998523;28;20283;-75
2022/11/21 09:32:39;;;;;;;;;;;1.50;99.90;;;;;;5011655;28;19925;-75
2022/11/21 09:35:05;;;;;;;;;;;1.40;99.90;;;;;;5012781;28;20322;-75
2022/11/21 09:37:35;;;;;;;;;;;1.30;99.90;;;;;;5021140;28;19932;-75
2022/11/21 09:40:01;;;;;;;;;;;1.10;99.90;;;;;;5010535;28;19948;-76
2022/11/21 09:42:46;;;;;;;;;;;1.70;99.90;;;;;;4982330;28;19924;-77
2022/11/21 09:45:15;;;;;;;;;;;0.90;99.90;;;;;;5012097;28;20294;-76
2022/11/21 09:47:48;;;;;;;;;;;0.80;99.90;;;;;;4997227;28;19971;-76
2022/11/21 09:50:13;;;;;;;;;;;0.80;99.90;;;;;;4995038;28;19921;-77
2022/11/21 09:52:48;;;;;;;;;;;0.90;99.90;;;;;;5013001;28;19921;-76
2022/11/21 09:55:26;;;;;;;;;;;0.90;99.90;;;;;;5015475;28;19944;-76
2022/11/21 09:57:52;;;;;;;;;;;0.80;99.90;;;;;;5029943;28;19969;-78
2022/11/21 10:00:24;;;;;;;;;;;0.70;99.90;;;;;;4994300;28;19975;-77
2022/11/21 10:02:50;;;;;;;;;;;0.70;99.90;;;;;;5011578;28;19921;-76
2022/11/21 10:05:16;;;;;;;;;;;0.60;99.90;;;;;;5013874;28;19964;-76
2022/11/21 10:07:43;;;;;;;;;;;0.60;99.90;;;;;;5012774;28;19956;-76
2022/11/21 10:10:31;;;;;;;;;;;0.50;99.90;;;;;;5005309;28;20341;-76
2022/11/21 10:13:09;;;;;;;;;;;0.50;99.90;;;;;;5011573;28;19921;-76
2022/11/21 10:15:40;;;;;;;;;;;0.40;99.90;;;;;;4995413;28;20332;-76
2022/11/21 10:18:08;;;;;;;;;;;2.20;99.90;;;;;;5013087;28;19921;-76
2022/11/21 10:20:34;;;;;;;;;;;0.50;99.90;;;;;;4999357;28;20340;-76
2022/11/21 10:22:59;;;;;;;;;;;0.60;99.90;;;;;;4994384;28;19929;-76
2022/11/21 10:25:27;;;;;;;;;;;-0.30;99.90;;;;;;5002800;28;20391;-75
2022/11/21 10:27:55;;;;;;;;;;;2.10;99.90;;;;;;5004960;28;20003;-75
2022/11/21 10:30:21;;;;;;;;;;;0.80;99.90;;;;;;5011148;28;21097;-75
2022/11/21 10:32:49;;;;;;;;;;;0.70;99.90;;;;;;5006542;28;19979;-75
2022/11/21 10:35:16;;;;;;;;;;;0.70;99.90;;;;;;5012297;28;19955;-75
2022/11/21 10:37:47;;;;;;;;;;;0.70;99.90;;;;;;4992652;28;20371;-75
2022/11/21 10:40:17;;;;;;;;;;;0.70;99.90;;;;;;4992540;28;19971;-77
2022/11/21 10:42:47;;;;;;;;;;;0.70;99.90;;;;;;5005423;28;20642;-76
2022/11/21 10:45:16;;;;;;;;;;;0.90;99.90;;;;;;5024718;28;19984;-78
2022/11/21 10:47:42;;;;;;;;;;;1.30;99.90;;;;;;4991477;28;20294;-77
2022/11/21 10:50:08;;;;;;;;;;;1.80;99.90;;;;;;4990562;28;20406;-77
2022/11/21 10:52:35;;;;;;;;;;;1.50;99.90;;;;;;5004350;28;19922;-77
2022/11/21 10:55:01;;;;;;;;;;;1.10;99.90;;;;;;4990962;28;19927;-76
2022/11/21 10:57:28;;;;;;;;;;;1.10;99.90;;;;;;5006805;28;19929;-77
2022/11/21 11:00:01;;;;;;;;;;;1.20;99.90;;;;;;4990745;28;19921;-77
2022/11/21 11:02:27;;;;;;;;;;;1.30;99.90;;;;;;4991584;28;19936;-77
2022/11/21 11:05:23;;;;;;;;;;;3.50;99.90;;;;;;4991207;28;19948;-77
2022/11/21 11:08:21;;;;;;;;;;;1.50;99.90;;;;;;4982576;28;19944;-77
2022/11/21 11:11:00;;;;;;;;;;;1.60;99.90;;;;;;4975130;28;19921;-77
2022/11/21 11:13:35;;;;;;;;;;;1.70;99.90;;;;;;4997847;28;19960;-78
2022/11/21 11:16:06;;;;;;;;;;;2.40;99.90;;;;;;4988013;28;19929;-77
2022/11/21 11:18:33;;;;;;;;;;;1.80;99.90;;;;;;4991005;28;20297;-77
2022/11/21 11:21:13;;;;;;;;;;;1.90;99.90;;;;;;5002314;28;19943;-77
2022/11/21 11:23:38;;;;;;;;;;;2.00;99.90;;;;;;5012349;28;19921;-77
2022/11/21 11:26:16;;;;;;;;;;;2.10;99.90;;;;;;5013266;28;19982;-77
2022/11/21 11:28:42;;;;;;;;;;;2.20;99.90;;;;;;5013217;28;20044;-77
2022/11/21 11:31:08;;;;;;;;;;;2.20;99.90;;;;;;4994662;28;19953;-77
2022/11/21 11:33:38;;;;;;;;;;;2.40;99.90;;;;;;4990991;28;20410;-76
2022/11/21 11:36:04;;;;;;;;;;;2.30;99.90;;;;;;5012813;28;19921;-76
2022/11/21 11:38:29;;;;;;;;;;;2.40;99.90;;;;;;4998178;28;19957;-76
2022/11/21 11:40:55;;;;;;;;;;;2.50;99.90;;;;;;5013976;28;19928;-76
2022/11/21 11:49:14;;;;;;;;;;;2.30;99.90;;;;;;5027768;28;20045;-76
2022/11/21 11:51:43;;;;;;;;;;;2.90;99.90;;;;;;5015410;28;19925;-76
2022/11/21 11:54:16;;;;;;;;;;;3.00;99.90;;;;;;5015361;28;19921;-76
2022/11/21 11:56:42;;;;;;;;;;;2.30;99.90;;;;;;5012670;28;20020;-78
2022/11/21 11:59:23;;;;;;;;;;;3.00;99.90;;;;;;4990305;28;20348;-78
2022/11/21 12:02:05;;;;;;;;;;;2.30;99.90;;;;;;5014764;28;19921;-78
2022/11/21 12:04:43;;;;;;;;;;;2.30;99.90;;;;;;5000290;28;19956;-79
2022/11/21 12:07:27;;;;;;;;;;;2.30;99.90;;;;;;5015594;28;19921;-78
2022/11/21 12:09:57;;;;;;;;;;;2.30;99.90;;;;;;5007493;28;19928;-78
2022/11/21 12:12:26;;;;;;;;;;;2.40;99.90;;;;;;4998831;28;19921;-78
2022/11/21 12:18:08;;;;;;;;;;;2.30;99.90;;;;;;5027555;28;19925;-76
2022/11/21 12:20:36;;;;;;;;;;;2.40;99.90;;;;;;4985921;28;19983;-76
2022/11/21 12:23:03;;;;;;;;;;;2.40;99.90;;;;;;5011804;28;20004;-76
2022/11/21 12:25:30;;;;;;;;;;;3.00;99.90;;;;;;4981072;28;19932;-75
2022/11/21 12:27:56;;;;;;;;;;;2.50;99.90;;;;;;5010087;28;19921;-75
2022/11/21 12:30:40;;;;;;;;;;;2.50;99.90;;;;;;5009634;28;20004;-75
2022/11/21 12:33:13;;;;;;;;;;;2.50;99.90;;;;;;5025900;28;19929;-76
2022/11/21 12:35:39;;;;;;;;;;;2.60;99.90;;;;;;5010124;28;19933;-76
2022/11/21 12:38:28;;;;;;;;;;;2.70;99.90;;;;;;4997255;28;19956;-76
2022/11/21 12:40:54;;;;;;;;;;;2.70;99.90;;;;;;5013704;28;20325;-76
2022/11/21 12:43:36;;;;;;;;;;;2.70;99.90;;;;;;5012931;28;19945;-76
2022/11/21 12:46:08;;;;;;;;;;;2.80;99.90;;;;;;5015394;28;19932;-76
2022/11/21 12:54:42;;;;;;;;;;;2.90;99.90;;;;;;5014689;28;19950;-76
2022/11/21 12:57:10;;;;;;;;;;;2.90;99.90;;;;;;4998871;28;19944;-76
2022/11/21 12:59:45;;;;;;;;;;;3.00;99.90;;;;;;4994282;28;20362;-76
2022/11/21 13:02:11;;;;;;;;;;;3.00;99.90;;;;;;4995599;28;19921;-76
2022/11/21 13:04:38;;;;;;;;;;;3.10;99.90;;;;;;5000241;28;19925;-76
2022/11/21 13:07:05;;;;;;;;;;;3.10;99.90;;;;;;5029399;28;20568;-76
2022/11/21 13:09:35;;;;;;;;;;;3.80;99.90;;;;;;5010583;28;19944;-76
2022/11/21 13:12:10;;;;;;;;;;;3.20;99.90;;;;;;5008383;28;19921;-76
2022/11/21 13:14:39;;;;;;;;;;;3.20;99.90;;;;;;5011989;28;19925;-76
2022/11/21 13:17:08;;;;;;;;;;;3.10;99.90;;;;;;4997765;28;20452;-76
2022/11/21 13:19:55;;;;;;;;;;;3.10;99.90;;;;;;5004503;28;19933;-76
2022/11/21 13:22:36;;;;;;;;;;;3.00;99.90;;;;;;4995843;28;19921;-76
2022/11/21 13:25:10;;;;;;;;;;;3.00;99.90;;;;;;4998120;28;20008;-76
2022/11/21 13:27:36;;;;;;;;;;;3.10;99.90;;;;;;5005059;28;20386;-76
2022/11/21 13:30:05;;;;;;;;;;;2.90;99.90;;;;;;5029591;28;20012;-75
2022/11/21 13:32:49;;;;;;;;;;;2.90;99.90;;;;;;5001475;28;19929;-76
2022/11/21 13:35:18;;;;;;;;;;;2.80;99.90;;;;;;5012691;28;19929;-76
2022/11/21 13:38:02;;;;;;;;;;;2.70;99.90;;;;;;4992600;28;20277;-76
2022/11/21 13:40:30;;;;;;;;;;;2.70;99.90;;;;;;4992227;28;19940;-76
2022/11/21 13:43:09;;;;;;;;;;;3.40;99.90;;;;;;5009561;28;20565;-77
2022/11/21 13:45:36;;;;;;;;;;;2.00;99.90;;;;;;5009393;28;19941;-75
2022/11/21 13:48:21;;;;;;;;;;;2.70;99.90;;;;;;5013505;28;19925;-75
2022/11/21 13:50:46;;;;;;;;;;;2.70;99.90;;;;;;5012563;28;19920;-75
2022/11/21 13:53:21;;;;;;;;;;;2.70;99.90;;;;;;5003669;28;20016;-75
2022/11/21 13:55:50;;;;;;;;;;;2.70;99.90;;;;;;5012602;28;20367;-76
2022/11/21 13:58:19;;;;;;;;;;;2.60;99.90;;;;;;4997094;28;20413;-76
2022/11/21 14:00:47;;;;;;;;;;;2.60;99.90;;;;;;4997698;28;19921;-75
2022/11/21 14:03:24;;;;;;;;;;;2.70;99.90;;;;;;5014307;28;19921;-76
2022/11/21 14:06:00;;;;;;;;;;;3.40;99.90;;;;;;5025420;28;20051;-75
2022/11/21 14:08:27;;;;;;;;;;;2.70;99.90;;;;;;5012287;28;19968;-75
2022/11/21 14:10:53;;;;;;;;;;;2.60;99.90;;;;;;5004253;28;19922;-75
2022/11/21 14:13:22;;;;;;;;;;;2.70;99.90;;;;;;5012199;28;20382;-75
2022/11/21 14:15:48;;;;;;;;;;;2.60;99.90;;;;;;5012355;28;20357;-76
2022/11/21 14:18:21;;;;;;;;;;;2.70;99.90;;;;;;5013996;28;19921;-76
2022/11/21 14:20:57;;;;;;;;;;;2.60;99.90;;;;;;4996012;28;20400;-75
2022/11/21 14:23:24;;;;;;;;;;;2.60;99.90;;;;;;5012765;28;20388;-75
2022/11/21 14:26:04;;;;;;;;;;;3.20;99.90;;;;;;5009760;28;19925;-75
2022/11/21 14:28:31;;;;;;;;;;;2.60;99.90;;;;;;5013406;28;20370;-76
2022/11/21 14:30:58;;;;;;;;;;;2.60;99.90;;;;;;5014217;28;19932;-76
2022/11/21 14:33:25;;;;;;;;;;;3.00;99.90;;;;;;4996697;28;19928;-75
2022/11/21 14:36:02;;;;;;;;;;;3.30;99.90;;;;;;5012349;28;20660;-76
2022/11/21 14:38:28;;;;;;;;;;;2.50;99.90;;;;;;5031574;28;19920;-75
2022/11/21 14:41:13;;;;;;;;;;;2.50;99.90;;;;;;5032497;28;19927;-76
2022/11/21 14:43:38;;;;;;;;;;;2.50;99.90;;;;;;5031881;28;19932;-75
2022/11/21 14:46:11;;;;;;;;;;;2.90;99.90;;;;;;5017293;28;19966;-76
2022/11/21 14:48:37;;;;;;;;;;;2.60;99.90;;;;;;5019551;28;19921;-75
2022/11/21 14:51:02;;;;;;;;;;;3.00;99.90;;;;;;5019140;28;19935;-76
2022/11/21 14:53:28;;;;;;;;;;;2.40;99.90;;;;;;5037253;28;20290;-75